sensor_id;sensor_type;location;lat;lon;timestamp;pressure;altitude;pressure_sealevel;temperature;humidity
6094;BME280;19964;42.060;24.700;2022-08-19T00:00:20;97082.28;;;23.60;54.52
6094;BME280;19964;42.060;24.700;2022-08-19T00:02:47;97079.13;;;23.66;54.59
6094;BME280;19964;42.060;24.700;2022-08-19T00:05:15;97080.50;;;23.72;53.36
6094;BME280;19964;42.060;24.700;2022-08-19T00:07:41;97085.25;;;23.87;53.51
6094;BME280;19964;42.060;24.700;2022-08-19T00:10:09;97086.78;;;23.97;53.56
6094;BME280;19964;42.060;24.700;2022-08-19T00:12:36;97094.19;;;23.74;54.72
6094;BME280;19964;42.060;24.700;2022-08-19T00:15:03;97096.66;;;23.79;53.73
6094;BME280;19964;42.060;24.700;2022-08-19T00:17:30;97090.97;;;23.98;52.32
6094;BME280;19964;42.060;24.700;2022-08-19T00:19:57;97093.84;;;23.84;53.89
6094;BME280;19964;42.060;24.700;2022-08-19T00:22:25;97084.41;;;23.66;55.77
6094;BME280;19964;42.060;24.700;2022-08-19T00:24:53;97082.63;;;23.50;55.83
6094;BME280;19964;42.060;24.700;2022-08-19T00:27:20;97074.88;;;23.45;55.31
6094;BME280;19964;42.060;24.700;2022-08-19T00:29:46;97073.91;;;23.49;55.34
6094;BME280;19964;42.060;24.700;2022-08-19T00:32:13;97081.84;;;23.58;54.37
6094;BME280;19964;42.060;24.700;2022-08-19T00:34:39;97079.34;;;23.82;53.07
6094;BME280;19964;42.060;24.700;2022-08-19T00:37:06;97076.47;;;24.04;52.82
6094;BME280;19964;42.060;24.700;2022-08-19T00:39:34;97077.31;;;24.17;53.23
6094;BME280;19964;42.060;24.700;2022-08-19T00:42:00;97065.69;;;24.09;53.69
6094;BME280;19964;42.060;24.700;2022-08-19T00:44:28;97054.91;;;23.85;54.76
6094;BME280;19964;42.060;24.700;2022-08-19T00:46:56;97061.25;;;23.63;55.73
6094;BME280;19964;42.060;24.700;2022-08-19T00:49:26;97063.56;;;23.73;54.63
6094;BME280;19964;42.060;24.700;2022-08-19T00:51:57;97059.59;;;23.50;55.52
6094;BME280;19964;42.060;24.700;2022-08-19T00:54:25;97048.75;;;23.43;55.57
6094;BME280;19964;42.060;24.700;2022-08-19T00:56:53;97051.97;;;23.49;54.88
6094;BME280;19964;42.060;24.700;2022-08-19T00:59:20;97046.34;;;23.59;54.87
6094;BME280;19964;42.060;24.700;2022-08-19T01:01:47;97043.69;;;23.59;54.51
6094;BME280;19964;42.060;24.700;2022-08-19T01:04:14;97046.00;;;23.60;54.97
6094;BME280;19964;42.060;24.700;2022-08-19T01:06:40;97049.44;;;23.61;54.65
6094;BME280;19964;42.060;24.700;2022-08-19T01:09:08;97045.09;;;23.56;54.93
6094;BME280;19964;42.060;24.700;2022-08-19T01:11:35;97036.13;;;23.49;54.87
6094;BME280;19964;42.060;24.700;2022-08-19T01:14:04;97040.44;;;23.62;54.55
6094;BME280;19964;42.060;24.700;2022-08-19T01:16:31;97040.50;;;23.74;54.12
6094;BME280;19964;42.060;24.700;2022-08-19T01:18:58;97040.19;;;23.75;54.50
6094;BME280;19964;42.060;24.700;2022-08-19T01:21:26;97036.94;;;23.70;54.64
6094;BME280;19964;42.060;24.700;2022-08-19T01:23:56;97048.44;;;23.74;54.06
6094;BME280;19964;42.060;24.700;2022-08-19T01:26:23;97050.00;;;23.75;54.13
6094;BME280;19964;42.060;24.700;2022-08-19T01:28:53;97041.50;;;23.61;54.80
6094;BME280;19964;42.060;24.700;2022-08-19T01:31:23;97033.34;;;23.45;55.15
6094;BME280;19964;42.060;24.700;2022-08-19T01:33:51;97041.00;;;23.38;55.35
6094;BME280;19964;42.060;24.700;2022-08-19T01:36:21;97046.75;;;23.40;55.52
6094;BME280;19964;42.060;24.700;2022-08-19T01:38:48;97052.16;;;23.44;55.20
6094;BME280;19964;42.060;24.700;2022-08-19T01:41:16;97054.53;;;23.28;56.24
6094;BME280;19964;42.060;24.700;2022-08-19T01:43:43;97058.16;;;23.15;56.02
6094;BME280;19964;42.060;24.700;2022-08-19T01:46:10;97054.22;;;23.21;55.65
6094;BME280;19964;42.060;24.700;2022-08-19T01:48:38;97057.03;;;23.25;56.20
6094;BME280;19964;42.060;24.700;2022-08-19T01:51:05;97065.28;;;23.32;55.16
6094;BME280;19964;42.060;24.700;2022-08-19T01:53:32;96934.63;;;22.49;55.82
6094;BME280;19964;42.060;24.700;2022-08-19T01:55:59;97059.06;;;23.19;56.16
6094;BME280;19964;42.060;24.700;2022-08-19T01:58:32;97065.28;;;23.23;55.69
6094;BME280;19964;42.060;24.700;2022-08-19T02:01:02;97073.50;;;23.30;55.81
6094;BME280;19964;42.060;24.700;2022-08-19T02:03:29;97080.28;;;23.57;54.33
6094;BME280;19964;42.060;24.700;2022-08-19T02:05:56;97082.84;;;23.28;56.78
6094;BME280;19964;42.060;24.700;2022-08-19T02:08:24;97093.13;;;23.21;57.35
6094;BME280;19964;42.060;24.700;2022-08-19T02:10:51;97102.75;;;23.42;56.35
6094;BME280;19964;42.060;24.700;2022-08-19T02:13:18;97093.81;;;23.55;56.03
6094;BME280;19964;42.060;24.700;2022-08-19T02:15:46;97101.44;;;23.57;56.62
6094;BME280;19964;42.060;24.700;2022-08-19T02:18:12;97103.09;;;23.32;56.55
6094;BME280;19964;42.060;24.700;2022-08-19T02:20:40;97101.06;;;23.21;57.66
6094;BME280;19964;42.060;24.700;2022-08-19T02:23:08;97109.03;;;22.86;58.59
6094;BME280;19964;42.060;24.700;2022-08-19T02:25:35;97119.47;;;22.83;58.93
6094;BME280;19964;42.060;24.700;2022-08-19T02:28:02;97112.00;;;22.59;59.94
6094;BME280;19964;42.060;24.700;2022-08-19T02:30:29;97100.66;;;22.59;60.44
6094;BME280;19964;42.060;24.700;2022-08-19T02:32:57;97109.78;;;22.36;61.03
6094;BME280;19964;42.060;24.700;2022-08-19T02:35:24;97109.31;;;22.17;61.83
6094;BME280;19964;42.060;24.700;2022-08-19T02:37:50;97106.34;;;22.09;61.98
6094;BME280;19964;42.060;24.700;2022-08-19T02:40:35;97110.38;;;22.07;62.03
6094;BME280;19964;42.060;24.700;2022-08-19T02:43:02;97109.41;;;21.86;62.09
6094;BME280;19964;42.060;24.700;2022-08-19T02:45:32;97119.31;;;21.80;63.29
6094;BME280;19964;42.060;24.700;2022-08-19T02:48:00;97119.19;;;22.02;62.62
6094;BME280;19964;42.060;24.700;2022-08-19T02:50:27;97116.88;;;22.01;62.56
6094;BME280;19964;42.060;24.700;2022-08-19T02:52:54;97116.06;;;21.83;63.36
6094;BME280;19964;42.060;24.700;2022-08-19T02:55:20;97118.50;;;21.80;63.45
6094;BME280;19964;42.060;24.700;2022-08-19T02:57:47;97122.13;;;21.84;63.54
6094;BME280;19964;42.060;24.700;2022-08-19T03:00:13;97115.63;;;21.90;63.12
6094;BME280;19964;42.060;24.700;2022-08-19T03:02:40;97119.72;;;21.74;64.22
6094;BME280;19964;42.060;24.700;2022-08-19T03:05:09;97125.03;;;21.52;65.22
6094;BME280;19964;42.060;24.700;2022-08-19T03:07:39;97126.31;;;21.54;64.99
6094;BME280;19964;42.060;24.700;2022-08-19T03:10:06;97124.78;;;21.62;64.13
6094;BME280;19964;42.060;24.700;2022-08-19T03:12:34;97121.84;;;21.63;64.34
6094;BME280;19964;42.060;24.700;2022-08-19T03:15:02;97126.16;;;21.59;64.91
6094;BME280;19964;42.060;24.700;2022-08-19T03:17:28;97124.09;;;21.48;65.15
6094;BME280;19964;42.060;24.700;2022-08-19T03:19:55;97131.41;;;21.51;65.11
6094;BME280;19964;42.060;24.700;2022-08-19T03:22:23;97137.16;;;21.53;65.12
6094;BME280;19964;42.060;24.700;2022-08-19T03:24:50;97143.25;;;21.62;64.47
6094;BME280;19964;42.060;24.700;2022-08-19T03:27:17;97144.94;;;21.58;64.70
6094;BME280;19964;42.060;24.700;2022-08-19T03:29:43;97146.75;;;21.49;65.07
6094;BME280;19964;42.060;24.700;2022-08-19T03:32:10;97140.94;;;21.30;66.04
6094;BME280;19964;42.060;24.700;2022-08-19T03:34:37;97136.88;;;21.32;65.78
6094;BME280;19964;42.060;24.700;2022-08-19T03:37:06;97139.72;;;21.36;65.49
6094;BME280;19964;42.060;24.700;2022-08-19T03:39:35;97142.53;;;21.17;66.95
6094;BME280;19964;42.060;24.700;2022-08-19T03:42:03;97064.25;;;20.65;66.63
6094;BME280;19964;42.060;24.700;2022-08-19T03:44:30;97135.19;;;21.27;66.00
6094;BME280;19964;42.060;24.700;2022-08-19T03:46:58;97146.06;;;21.12;66.73
6094;BME280;19964;42.060;24.700;2022-08-19T03:49:27;97147.22;;;21.20;66.84
6094;BME280;19964;42.060;24.700;2022-08-19T03:51:54;97145.72;;;21.27;66.38
6094;BME280;19964;42.060;24.700;2022-08-19T03:54:22;97149.03;;;21.42;67.00
6094;BME280;19964;42.060;24.700;2022-08-19T03:56:51;97146.34;;;21.64;65.78
6094;BME280;19964;42.060;24.700;2022-08-19T03:59:20;97149.88;;;21.81;65.29
6094;BME280;19964;42.060;24.700;2022-08-19T04:01:50;97150.97;;;21.89;64.39
6094;BME280;19964;42.060;24.700;2022-08-19T04:04:17;97153.66;;;22.06;64.14
6094;BME280;19964;42.060;24.700;2022-08-19T04:06:43;97161.03;;;22.26;63.43
6094;BME280;19964;42.060;24.700;2022-08-19T04:09:12;97166.00;;;22.36;63.34
6094;BME280;19964;42.060;24.700;2022-08-19T04:11:40;97165.88;;;22.50;62.78
6094;BME280;19964;42.060;24.700;2022-08-19T04:14:09;97156.00;;;22.64;62.89
6094;BME280;19964;42.060;24.700;2022-08-19T04:16:35;97160.66;;;22.75;63.15
6094;BME280;19964;42.060;24.700;2022-08-19T04:19:03;97160.16;;;22.90;62.88
6094;BME280;19964;42.060;24.700;2022-08-19T04:21:30;97158.00;;;23.01;62.48
6094;BME280;19964;42.060;24.700;2022-08-19T04:23:56;97158.16;;;23.13;62.45
6094;BME280;19964;42.060;24.700;2022-08-19T04:26:24;97164.69;;;23.33;62.25
6094;BME280;19964;42.060;24.700;2022-08-19T04:28:51;97156.88;;;23.36;61.78
6094;BME280;19964;42.060;24.700;2022-08-19T04:31:21;97166.44;;;23.66;61.55
6094;BME280;19964;42.060;24.700;2022-08-19T04:33:51;97169.13;;;23.96;60.33
6094;BME280;19964;42.060;24.700;2022-08-19T04:36:18;97167.66;;;24.15;60.56
6094;BME280;19964;42.060;24.700;2022-08-19T04:38:45;97172.94;;;24.44;59.83
6094;BME280;19964;42.060;24.700;2022-08-19T04:41:12;97174.50;;;24.66;59.45
6094;BME280;19964;42.060;24.700;2022-08-19T04:43:56;97172.28;;;24.77;59.00
6094;BME280;19964;42.060;24.700;2022-08-19T04:46:24;97171.03;;;24.95;59.05
6094;BME280;19964;42.060;24.700;2022-08-19T04:48:50;97171.41;;;25.05;58.77
6094;BME280;19964;42.060;24.700;2022-08-19T04:51:22;97168.19;;;25.32;57.69
6094;BME280;19964;42.060;24.700;2022-08-19T04:53:49;97164.31;;;25.63;57.10
6094;BME280;19964;42.060;24.700;2022-08-19T04:56:16;97156.94;;;25.80;56.88
6094;BME280;19964;42.060;24.700;2022-08-19T04:58:47;97168.56;;;26.12;54.73
6094;BME280;19964;42.060;24.700;2022-08-19T05:01:13;97168.19;;;26.50;53.87
6094;BME280;19964;42.060;24.700;2022-08-19T05:03:43;97163.75;;;26.78;54.83
6094;BME280;19964;42.060;24.700;2022-08-19T05:06:10;97171.72;;;27.05;53.40
6094;BME280;19964;42.060;24.700;2022-08-19T05:08:38;97174.28;;;27.02;52.63
6094;BME280;19964;42.060;24.700;2022-08-19T05:11:08;97179.81;;;27.09;53.07
6094;BME280;19964;42.060;24.700;2022-08-19T05:13:36;97184.44;;;26.72;51.66
6094;BME280;19964;42.060;24.700;2022-08-19T05:16:02;97178.34;;;27.11;52.84
6094;BME280;19964;42.060;24.700;2022-08-19T05:18:29;97184.03;;;26.98;50.66
6094;BME280;19964;42.060;24.700;2022-08-19T05:21:16;97194.88;;;26.77;50.79
6094;BME280;19964;42.060;24.700;2022-08-19T05:24:00;97196.75;;;27.16;50.75
6094;BME280;19964;42.060;24.700;2022-08-19T05:26:27;97195.41;;;27.50;49.27
6094;BME280;19964;42.060;24.700;2022-08-19T05:28:53;97190.94;;;27.70;48.48
6094;BME280;19964;42.060;24.700;2022-08-19T05:31:20;97192.44;;;27.98;47.42
6094;BME280;19964;42.060;24.700;2022-08-19T05:33:47;97195.59;;;27.73;48.91
6094;BME280;19964;42.060;24.700;2022-08-19T05:36:16;97197.47;;;28.19;50.42
6094;BME280;19964;42.060;24.700;2022-08-19T05:38:44;97188.59;;;28.81;47.63
6094;BME280;19964;42.060;24.700;2022-08-19T05:41:13;97192.38;;;28.80;46.37
6094;BME280;19964;42.060;24.700;2022-08-19T05:43:41;97191.69;;;28.83;46.77
6094;BME280;19964;42.060;24.700;2022-08-19T05:46:08;97196.25;;;28.82;46.42
6094;BME280;19964;42.060;24.700;2022-08-19T05:48:35;97195.56;;;28.85;46.92
6094;BME280;19964;42.060;24.700;2022-08-19T05:51:03;97191.84;;;28.90;46.68
6094;BME280;19964;42.060;24.700;2022-08-19T05:53:31;97197.94;;;29.10;47.29
6094;BME280;19964;42.060;24.700;2022-08-19T05:56:02;97201.25;;;29.41;47.57
6094;BME280;19964;42.060;24.700;2022-08-19T05:58:29;97195.81;;;28.61;49.63
6094;BME280;19964;42.060;24.700;2022-08-19T06:00:55;97194.69;;;28.62;50.74
6094;BME280;19964;42.060;24.700;2022-08-19T06:03:22;97200.63;;;28.56;51.60
6094;BME280;19964;42.060;24.700;2022-08-19T06:05:49;97202.47;;;29.25;49.33
6094;BME280;19964;42.060;24.700;2022-08-19T06:08:15;97202.00;;;29.61;48.22
6094;BME280;19964;42.060;24.700;2022-08-19T06:10:44;97203.41;;;28.78;49.17
6094;BME280;19964;42.060;24.700;2022-08-19T06:13:11;97204.69;;;29.03;49.35
6094;BME280;19964;42.060;24.700;2022-08-19T06:15:37;97203.72;;;28.58;50.44
6094;BME280;19964;42.060;24.700;2022-08-19T06:18:04;97207.31;;;27.56;52.37
6094;BME280;19964;42.060;24.700;2022-08-19T06:20:30;97204.25;;;27.70;53.09
6094;BME280;19964;42.060;24.700;2022-08-19T06:22:57;97206.75;;;27.94;52.26
6094;BME280;19964;42.060;24.700;2022-08-19T06:25:24;97203.66;;;28.73;51.67
6094;BME280;19964;42.060;24.700;2022-08-19T06:27:52;97209.47;;;29.33;49.72
6094;BME280;19964;42.060;24.700;2022-08-19T06:30:18;97210.03;;;29.03;50.03
6094;BME280;19964;42.060;24.700;2022-08-19T06:32:45;97206.94;;;28.82;49.99
6094;BME280;19964;42.060;24.700;2022-08-19T06:35:11;97213.91;;;29.44;49.42
6094;BME280;19964;42.060;24.700;2022-08-19T06:37:39;97211.81;;;29.99;49.20
6094;BME280;19964;42.060;24.700;2022-08-19T06:40:08;97215.78;;;30.08;48.80
6094;BME280;19964;42.060;24.700;2022-08-19T06:42:35;97215.81;;;29.85;48.67
6094;BME280;19964;42.060;24.700;2022-08-19T06:45:05;97221.31;;;29.73;48.05
6094;BME280;19964;42.060;24.700;2022-08-19T06:47:33;97224.53;;;29.63;49.33
6094;BME280;19964;42.060;24.700;2022-08-19T06:50:00;97235.03;;;29.95;47.37
6094;BME280;19964;42.060;24.700;2022-08-19T06:52:27;97229.06;;;30.50;46.68
6094;BME280;19964;42.060;24.700;2022-08-19T06:54:54;97241.41;;;30.32;46.71
6094;BME280;19964;42.060;24.700;2022-08-19T06:57:22;97235.16;;;30.24;47.29
6094;BME280;19964;42.060;24.700;2022-08-19T06:59:49;97234.25;;;30.92;47.32
6094;BME280;19964;42.060;24.700;2022-08-19T07:02:17;97231.44;;;31.11;46.06
6094;BME280;19964;42.060;24.700;2022-08-19T07:04:44;97226.78;;;31.74;45.65
6094;BME280;19964;42.060;24.700;2022-08-19T07:07:12;97227.50;;;32.04;45.13
6094;BME280;19964;42.060;24.700;2022-08-19T07:09:39;97232.94;;;31.75;43.29
6094;BME280;19964;42.060;24.700;2022-08-19T07:12:07;97228.06;;;31.87;45.35
6094;BME280;19964;42.060;24.700;2022-08-19T07:14:34;97231.28;;;31.63;44.39
6094;BME280;19964;42.060;24.700;2022-08-19T07:17:02;97222.56;;;31.70;43.88
6094;BME280;19964;42.060;24.700;2022-08-19T07:19:30;97224.31;;;31.55;44.27
6094;BME280;19964;42.060;24.700;2022-08-19T07:21:57;97223.53;;;30.92;45.86
6094;BME280;19964;42.060;24.700;2022-08-19T07:24:25;97221.25;;;30.64;45.42
6094;BME280;19964;42.060;24.700;2022-08-19T07:26:52;97215.63;;;30.99;46.09
6094;BME280;19964;42.060;24.700;2022-08-19T07:29:21;97221.41;;;31.04;45.96
6094;BME280;19964;42.060;24.700;2022-08-19T07:31:48;97220.78;;;31.88;46.18
6094;BME280;19964;42.060;24.700;2022-08-19T07:34:15;97218.94;;;32.42;44.33
6094;BME280;19964;42.060;24.700;2022-08-19T07:36:43;97218.31;;;31.69;44.09
6094;BME280;19964;42.060;24.700;2022-08-19T07:39:11;97216.38;;;32.53;43.72
6094;BME280;19964;42.060;24.700;2022-08-19T07:41:38;97215.72;;;32.77;42.94
6094;BME280;19964;42.060;24.700;2022-08-19T07:44:05;97222.44;;;33.15;42.17
6094;BME280;19964;42.060;24.700;2022-08-19T07:46:33;97221.88;;;33.78;41.14
6094;BME280;19964;42.060;24.700;2022-08-19T07:49:00;97222.63;;;33.64;41.40
6094;BME280;19964;42.060;24.700;2022-08-19T07:51:28;97217.66;;;33.91;38.84
6094;BME280;19964;42.060;24.700;2022-08-19T07:53:56;97219.53;;;33.62;40.72
6094;BME280;19964;42.060;24.700;2022-08-19T07:56:22;97218.84;;;34.07;40.74
6094;BME280;19964;42.060;24.700;2022-08-19T07:58:50;97221.50;;;34.39;37.13
6094;BME280;19964;42.060;24.700;2022-08-19T08:01:19;97214.88;;;34.93;37.32
6094;BME280;19964;42.060;24.700;2022-08-19T08:03:47;97217.88;;;35.09;36.08
6094;BME280;19964;42.060;24.700;2022-08-19T08:06:31;97222.94;;;35.00;36.57
6094;BME280;19964;42.060;24.700;2022-08-19T08:09:18;97219.13;;;34.80;37.18
6094;BME280;19964;42.060;24.700;2022-08-19T08:11:48;97218.19;;;35.32;36.92
6094;BME280;19964;42.060;24.700;2022-08-19T08:14:16;97210.59;;;35.10;36.83
6094;BME280;19964;42.060;24.700;2022-08-19T08:16:45;97215.25;;;34.91;35.10
6094;BME280;19964;42.060;24.700;2022-08-19T08:19:11;97210.94;;;35.15;36.98
6094;BME280;19964;42.060;24.700;2022-08-19T08:21:40;97216.06;;;35.71;34.63
6094;BME280;19964;42.060;24.700;2022-08-19T08:24:06;97215.88;;;36.00;34.99
6094;BME280;19964;42.060;24.700;2022-08-19T08:26:34;97211.72;;;36.36;33.76
6094;BME280;19964;42.060;24.700;2022-08-19T08:29:01;97213.78;;;35.63;34.22
6094;BME280;19964;42.060;24.700;2022-08-19T08:31:27;97205.38;;;35.54;35.67
6094;BME280;19964;42.060;24.700;2022-08-19T08:33:54;97203.75;;;35.67;35.73
6094;BME280;19964;42.060;24.700;2022-08-19T08:36:20;97211.63;;;36.02;34.85
6094;BME280;19964;42.060;24.700;2022-08-19T08:38:47;97204.75;;;36.35;32.82
6094;BME280;19964;42.060;24.700;2022-08-19T08:41:17;97207.81;;;36.78;34.84
6094;BME280;19964;42.060;24.700;2022-08-19T08:43:47;97210.59;;;36.71;32.69
6094;BME280;19964;42.060;24.700;2022-08-19T08:46:17;97204.84;;;36.69;35.47
6094;BME280;19964;42.060;24.700;2022-08-19T08:48:46;97203.28;;;36.67;34.11
6094;BME280;19964;42.060;24.700;2022-08-19T08:51:16;97198.09;;;36.06;36.06
6094;BME280;19964;42.060;24.700;2022-08-19T08:53:45;97190.97;;;36.67;33.99
6094;BME280;19964;42.060;24.700;2022-08-19T08:56:15;97192.31;;;36.82;32.81
6094;BME280;19964;42.060;24.700;2022-08-19T08:58:49;97192.97;;;36.59;31.80
6094;BME280;19964;42.060;24.700;2022-08-19T09:01:17;97187.38;;;35.95;33.04
6094;BME280;19964;42.060;24.700;2022-08-19T09:03:44;97189.84;;;35.72;32.72
6094;BME280;19964;42.060;24.700;2022-08-19T09:06:12;97191.56;;;36.44;33.03
6094;BME280;19964;42.060;24.700;2022-08-19T09:08:43;97177.59;;;36.12;31.91
6094;BME280;19964;42.060;24.700;2022-08-19T09:11:15;97177.88;;;36.65;34.06
6094;BME280;19964;42.060;24.700;2022-08-19T09:13:48;97176.19;;;36.41;33.70
6094;BME280;19964;42.060;24.700;2022-08-19T09:16:21;97187.22;;;36.57;31.76
6094;BME280;19964;42.060;24.700;2022-08-19T09:18:52;97179.06;;;37.24;32.37
6094;BME280;19964;42.060;24.700;2022-08-19T09:21:20;97168.81;;;37.12;31.93
6094;BME280;19964;42.060;24.700;2022-08-19T09:23:47;97172.75;;;37.04;31.12
6094;BME280;19964;42.060;24.700;2022-08-19T09:26:15;97176.41;;;37.21;31.08
6094;BME280;19964;42.060;24.700;2022-08-19T09:28:42;97172.50;;;37.25;29.65
6094;BME280;19964;42.060;24.700;2022-08-19T09:31:09;97173.47;;;37.92;32.61
6094;BME280;19964;42.060;24.700;2022-08-19T09:33:37;97176.66;;;38.53;30.02
6094;BME280;19964;42.060;24.700;2022-08-19T09:36:05;97171.06;;;38.63;29.22
6094;BME280;19964;42.060;24.700;2022-08-19T09:38:33;97169.25;;;38.76;28.60
6094;BME280;19964;42.060;24.700;2022-08-19T09:41:04;97116.38;;;38.68;27.90
6094;BME280;19964;42.060;24.700;2022-08-19T09:43:31;97172.06;;;38.73;27.59
6094;BME280;19964;42.060;24.700;2022-08-19T09:45:58;97167.16;;;38.45;32.06
6094;BME280;19964;42.060;24.700;2022-08-19T09:48:25;97166.81;;;38.62;30.53
6094;BME280;19964;42.060;24.700;2022-08-19T09:50:53;97174.28;;;38.12;28.77
6094;BME280;19964;42.060;24.700;2022-08-19T09:53:20;97164.78;;;36.60;29.87
6094;BME280;19964;42.060;24.700;2022-08-19T09:55:48;97162.53;;;36.92;29.69
6094;BME280;19964;42.060;24.700;2022-08-19T09:58:15;97164.75;;;36.97;31.45
6094;BME280;19964;42.060;24.700;2022-08-19T10:00:42;97160.31;;;36.46;31.91
6094;BME280;19964;42.060;24.700;2022-08-19T10:03:08;97154.56;;;37.08;29.93
6094;BME280;19964;42.060;24.700;2022-08-19T10:05:36;97156.78;;;37.70;31.59
6094;BME280;19964;42.060;24.700;2022-08-19T10:08:18;97156.38;;;37.72;30.05
6094;BME280;19964;42.060;24.700;2022-08-19T10:10:45;97159.13;;;37.95;30.61
6094;BME280;19964;42.060;24.700;2022-08-19T10:13:14;97146.44;;;37.65;28.88
6094;BME280;19964;42.060;24.700;2022-08-19T10:15:41;97135.59;;;36.82;32.22
6094;BME280;19964;42.060;24.700;2022-08-19T10:18:08;97149.69;;;36.66;31.00
6094;BME280;19964;42.060;24.700;2022-08-19T10:20:34;97144.78;;;37.18;28.89
6094;BME280;19964;42.060;24.700;2022-08-19T10:23:02;97141.94;;;37.28;30.26
6094;BME280;19964;42.060;24.700;2022-08-19T10:25:31;97133.94;;;37.48;30.60
6094;BME280;19964;42.060;24.700;2022-08-19T10:27:59;97142.59;;;37.09;29.40
6094;BME280;19964;42.060;24.700;2022-08-19T10:30:26;97126.06;;;36.36;29.54
6094;BME280;19964;42.060;24.700;2022-08-19T10:32:52;97128.53;;;37.21;29.19
6094;BME280;19964;42.060;24.700;2022-08-19T10:35:19;97121.66;;;37.93;29.44
6094;BME280;19964;42.060;24.700;2022-08-19T10:37:45;97130.28;;;37.85;29.23
6094;BME280;19964;42.060;24.700;2022-08-19T10:40:12;97127.47;;;36.51;30.30
6094;BME280;19964;42.060;24.700;2022-08-19T10:42:40;97120.53;;;36.50;30.13
6094;BME280;19964;42.060;24.700;2022-08-19T10:45:07;97128.56;;;36.20;29.87
6094;BME280;19964;42.060;24.700;2022-08-19T10:47:34;97128.03;;;36.32;30.26
6094;BME280;19964;42.060;24.700;2022-08-19T10:50:01;97123.03;;;36.68;28.96
6094;BME280;19964;42.060;24.700;2022-08-19T10:52:46;97126.31;;;36.86;30.49
6094;BME280;19964;42.060;24.700;2022-08-19T10:55:12;97122.06;;;36.85;30.58
6094;BME280;19964;42.060;24.700;2022-08-19T10:57:58;97128.34;;;35.53;29.96
6094;BME280;19964;42.060;24.700;2022-08-19T11:00:24;97124.84;;;36.44;28.76
6094;BME280;19964;42.060;24.700;2022-08-19T11:02:51;97124.38;;;36.53;29.04
6094;BME280;19964;42.060;24.700;2022-08-19T11:05:18;97120.34;;;36.31;31.17
6094;BME280;19964;42.060;24.700;2022-08-19T11:07:47;97120.03;;;36.25;29.97
6094;BME280;19964;42.060;24.700;2022-08-19T11:10:16;97115.09;;;36.17;30.29
6094;BME280;19964;42.060;24.700;2022-08-19T11:12:44;97113.66;;;36.05;29.94
6094;BME280;19964;42.060;24.700;2022-08-19T11:15:13;97109.44;;;36.04;28.27
6094;BME280;19964;42.060;24.700;2022-08-19T11:17:39;97108.59;;;36.51;29.20
6094;BME280;19964;42.060;24.700;2022-08-19T11:20:09;97114.25;;;36.60;27.54
6094;BME280;19964;42.060;24.700;2022-08-19T11:22:35;97107.66;;;36.65;28.77
6094;BME280;19964;42.060;24.700;2022-08-19T11:25:02;97105.66;;;36.99;27.38
6094;BME280;19964;42.060;24.700;2022-08-19T11:27:29;97103.94;;;36.52;27.71
6094;BME280;19964;42.060;24.700;2022-08-19T11:29:56;97095.69;;;36.96;29.70
6094;BME280;19964;42.060;24.700;2022-08-19T11:32:24;97103.78;;;36.96;27.02
6094;BME280;19964;42.060;24.700;2022-08-19T11:34:50;97093.63;;;36.74;28.40
6094;BME280;19964;42.060;24.700;2022-08-19T11:37:17;97097.38;;;36.53;29.48
6094;BME280;19964;42.060;24.700;2022-08-19T11:39:43;97094.94;;;36.62;31.84
6094;BME280;19964;42.060;24.700;2022-08-19T11:42:10;97094.44;;;36.71;29.70
6094;BME280;19964;42.060;24.700;2022-08-19T11:44:54;97079.72;;;36.45;30.39
6094;BME280;19964;42.060;24.700;2022-08-19T11:47:20;97094.66;;;36.16;28.75
6094;BME280;19964;42.060;24.700;2022-08-19T11:49:48;97082.50;;;36.34;27.76
6094;BME280;19964;42.060;24.700;2022-08-19T11:52:15;97083.38;;;36.92;29.31
6094;BME280;19964;42.060;24.700;2022-08-19T11:54:41;97093.78;;;36.93;25.89
6094;BME280;19964;42.060;24.700;2022-08-19T11:57:08;97078.31;;;37.20;26.34
6094;BME280;19964;42.060;24.700;2022-08-19T11:59:34;97083.44;;;37.15;25.59
6094;BME280;19964;42.060;24.700;2022-08-19T12:02:01;97078.94;;;37.05;26.65
6094;BME280;19964;42.060;24.700;2022-08-19T12:04:27;97074.38;;;37.02;27.45
6094;BME280;19964;42.060;24.700;2022-08-19T12:06:55;97075.63;;;37.47;26.03
6094;BME280;19964;42.060;24.700;2022-08-19T12:09:22;97066.69;;;37.00;28.18
6094;BME280;19964;42.060;24.700;2022-08-19T12:11:48;97060.78;;;36.75;27.23
6094;BME280;19964;42.060;24.700;2022-08-19T12:14:15;97057.56;;;36.23;30.29
6094;BME280;19964;42.060;24.700;2022-08-19T12:16:43;97061.03;;;36.24;28.40
6094;BME280;19964;42.060;24.700;2022-08-19T12:19:10;97049.84;;;36.25;27.89
6094;BME280;19964;42.060;24.700;2022-08-19T12:21:37;97060.75;;;36.48;26.00
6094;BME280;19964;42.060;24.700;2022-08-19T12:24:05;97063.72;;;36.61;26.63
6094;BME280;19964;42.060;24.700;2022-08-19T12:26:32;97062.69;;;36.48;27.30
6094;BME280;19964;42.060;24.700;2022-08-19T12:28:59;97058.56;;;36.36;26.73
6094;BME280;19964;42.060;24.700;2022-08-19T12:31:25;97054.16;;;36.53;28.55
6094;BME280;19964;42.060;24.700;2022-08-19T12:33:53;97050.03;;;36.45;28.70
6094;BME280;19964;42.060;24.700;2022-08-19T12:36:19;97060.00;;;36.78;27.08
6094;BME280;19964;42.060;24.700;2022-08-19T12:38:47;97053.97;;;36.67;26.07
6094;BME280;19964;42.060;24.700;2022-08-19T12:41:15;97053.75;;;37.11;28.05
6094;BME280;19964;42.060;24.700;2022-08-19T12:43:43;97042.06;;;37.44;26.78
6094;BME280;19964;42.060;24.700;2022-08-19T12:46:10;97047.63;;;37.57;26.41
6094;BME280;19964;42.060;24.700;2022-08-19T12:48:37;97044.00;;;37.17;26.96
6094;BME280;19964;42.060;24.700;2022-08-19T12:51:06;97040.66;;;37.36;26.81
6094;BME280;19964;42.060;24.700;2022-08-19T12:53:33;97040.53;;;37.17;27.17
6094;BME280;19964;42.060;24.700;2022-08-19T12:55:59;97036.81;;;36.50;26.92
6094;BME280;19964;42.060;24.700;2022-08-19T12:58:27;97033.41;;;36.77;27.40
6094;BME280;19964;42.060;24.700;2022-08-19T13:00:54;97025.75;;;36.38;27.19
6094;BME280;19964;42.060;24.700;2022-08-19T13:03:21;97026.50;;;36.42;30.29